createdAt,value
2018-11-03T00:03:05.722Z,3.10
2018-11-03T00:08:09.134Z,3.37
2018-11-03T00:13:12.496Z,3.87
2018-11-03T00:18:15.892Z,4.13
2018-11-03T00:23:19.453Z,3.10
2018-11-03T00:28:22.740Z,3.60
2018-11-03T00:33:26.185Z,3.60
2018-11-03T00:38:29.562Z,3.50
2018-11-03T00:43:32.926Z,3.87
2018-11-03T00:48:36.296Z,3.27
2018-11-03T00:53:39.766Z,3.20
2018-11-03T00:58:43.147Z,3.20
2018-11-03T01:03:46.469Z,3.13
2018-11-03T01:08:49.821Z,3.80
2018-11-03T01:13:53.312Z,4.10
2018-11-03T01:18:56.682Z,4.12
2018-11-03T01:24:00.085Z,3.50
2018-11-03T01:29:03.698Z,3.60
2018-11-03T01:34:07.089Z,4.50
2018-11-03T01:39:11.717Z,3.20
2018-11-03T01:44:15.195Z,3.93
2018-11-03T01:49:18.547Z,3.30
2018-11-03T01:54:21.886Z,3.47
2018-11-03T01:59:25.234Z,3.90
2018-11-03T02:04:28.560Z,2.83
2018-11-03T02:09:31.910Z,3.13
2018-11-03T02:14:35.451Z,2.77
2018-11-03T02:19:39.457Z,2.53
2018-11-03T02:24:42.829Z,2.07
2018-11-03T02:29:46.197Z,2.97
2018-11-03T02:34:49.534Z,2.90
2018-11-03T02:39:52.837Z,3.33
2018-11-03T02:44:56.217Z,3.97
2018-11-03T02:49:59.722Z,3.43
2018-11-03T02:55:03.053Z,2.95
2018-11-03T03:00:07.199Z,2.80
2018-11-03T03:05:11.206Z,2.57
2018-11-03T03:10:14.758Z,3.00
2018-11-03T03:15:18.339Z,3.33
2018-11-03T03:20:21.718Z,3.70
2018-11-03T03:25:25.078Z,3.00
2018-11-03T03:30:28.417Z,3.20
2018-11-03T03:35:31.756Z,3.77
2018-11-03T03:40:35.091Z,3.27
2018-11-03T03:45:38.470Z,3.93
2018-11-03T03:50:41.872Z,3.50
2018-11-03T03:55:45.246Z,3.73
2018-11-03T04:00:48.569Z,4.50
2018-11-03T04:05:52.108Z,3.87
2018-11-03T04:10:55.466Z,4.93
2018-11-03T04:15:58.858Z,4.77
2018-11-03T04:21:02.296Z,4.62
2018-11-03T04:26:05.839Z,3.63
2018-11-03T04:31:09.176Z,3.62
2018-11-03T04:36:12.671Z,4.07
2018-11-03T04:41:16.057Z,4.50
2018-11-03T04:46:19.430Z,3.97
2018-11-03T04:51:22.869Z,4.10
2018-11-03T04:56:26.230Z,3.50
2018-11-03T05:01:29.806Z,3.73
2018-11-03T05:06:33.235Z,2.83
2018-11-03T05:11:36.628Z,3.37
2018-11-03T05:16:39.929Z,3.87
2018-11-03T05:21:43.252Z,4.40
2018-11-03T05:26:46.689Z,4.67
2018-11-03T05:31:50.105Z,4.57
2018-11-03T05:36:53.450Z,4.10
2018-11-03T05:41:56.809Z,4.47
2018-11-03T05:47:00.228Z,4.87
2018-11-03T05:52:03.548Z,4.17
2018-11-03T05:57:07.034Z,4.63
2018-11-03T06:02:10.443Z,4.17
2018-11-03T06:07:13.740Z,5.30
2018-11-03T06:12:17.240Z,5.10
2018-11-03T06:17:20.650Z,4.57
2018-11-03T06:22:24.039Z,4.37
2018-11-03T06:27:27.317Z,4.00
2018-11-03T06:32:30.876Z,4.20
2018-11-03T06:37:34.454Z,3.47
2018-11-03T06:42:38.409Z,3.67
2018-11-03T06:47:42.036Z,4.20
2018-11-03T06:52:45.418Z,4.80
2018-11-03T06:57:48.795Z,4.57
2018-11-03T07:02:52.119Z,2.97
2018-11-03T07:07:55.658Z,3.70
2018-11-03T07:12:59.419Z,3.63
2018-11-03T07:18:02.910Z,3.67
2018-11-03T07:23:06.313Z,3.93
2018-11-03T07:28:09.783Z,4.37
2018-11-03T07:33:13.351Z,4.27
2018-11-03T07:38:16.821Z,3.70
2018-11-03T07:43:20.396Z,4.13
2018-11-03T07:48:23.866Z,4.77
2018-11-03T07:53:27.369Z,4.57
2018-11-03T07:58:30.958Z,4.63
2018-11-03T08:03:34.314Z,4.57
2018-11-03T08:08:37.701Z,3.87
2018-11-03T08:13:41.033Z,3.60
2018-11-03T08:18:44.481Z,4.30
2018-11-03T08:23:47.925Z,3.87
2018-11-03T08:28:51.309Z,3.73
2018-11-03T08:33:54.868Z,4.83
2018-11-03T08:38:58.192Z,4.23
2018-11-03T08:44:01.553Z,4.97
2018-11-03T08:49:06.213Z,4.63
2018-11-03T08:54:09.684Z,4.90
2018-11-03T08:59:13.079Z,4.93
2018-11-03T09:04:16.445Z,3.97
2018-11-03T09:09:19.878Z,4.73
2018-11-03T09:14:23.234Z,4.90
2018-11-03T09:19:26.599Z,4.43
2018-11-03T09:24:29.985Z,4.77
2018-11-03T09:29:33.409Z,4.50
2018-11-03T09:34:36.898Z,5.40
2018-11-03T09:39:40.460Z,5.60
2018-11-03T09:44:44.041Z,4.60
2018-11-03T09:49:47.504Z,4.60
2018-11-03T09:54:50.858Z,4.33
2018-11-03T09:59:54.358Z,4.47
2018-11-03T10:04:57.700Z,4.87
2018-11-03T10:10:01.197Z,6.23
2018-11-03T10:15:04.530Z,5.10
2018-11-03T10:20:08.683Z,4.97
2018-11-03T10:25:14.885Z,5.03
2018-11-03T10:30:18.652Z,5.60
2018-11-03T10:35:22.128Z,4.90
2018-11-03T10:40:25.481Z,5.20
2018-11-03T10:45:28.561Z,5.60
2018-11-03T10:50:32.134Z,5.93
2018-11-03T10:55:35.189Z,4.83
2018-11-03T11:00:43.921Z,5.17
2018-11-03T11:05:52.506Z,6.00
2018-11-03T11:11:01.341Z,4.10
2018-11-03T11:16:04.783Z,4.30
2018-11-03T11:21:08.281Z,5.03
2018-11-03T11:26:11.581Z,4.50
2018-11-03T11:31:14.959Z,4.73
2018-11-03T11:36:18.365Z,7.90
2018-11-03T11:41:21.921Z,6.10
2018-11-03T11:46:25.252Z,6.17
2018-11-03T11:51:28.665Z,5.17
2018-11-03T11:56:32.096Z,5.17
2018-11-03T12:01:35.437Z,4.50
2018-11-03T12:06:38.796Z,4.23
2018-11-03T12:11:42.173Z,5.33
2018-11-03T12:16:45.683Z,4.17
2018-11-03T12:21:49.076Z,5.60
2018-11-03T12:26:52.519Z,6.63
2018-11-03T12:31:56.054Z,5.83
2018-11-03T12:36:59.452Z,8.53
2018-11-03T12:42:02.913Z,6.23
2018-11-03T12:47:06.276Z,6.07
2018-11-03T12:52:09.923Z,6.57
2018-11-03T12:57:13.318Z,5.93
2018-11-03T13:02:16.725Z,7.43
2018-11-03T13:07:20.048Z,7.87
2018-11-03T13:12:23.426Z,6.37
2018-11-03T13:17:26.848Z,5.90
2018-11-03T13:22:30.268Z,5.97
2018-11-03T13:27:33.648Z,5.27
2018-11-03T13:32:37.097Z,5.13
2018-11-03T13:37:40.708Z,5.30
2018-11-03T13:42:44.587Z,5.77
2018-11-03T13:47:48.000Z,6.73
2018-11-03T13:52:51.373Z,5.97
2018-11-03T13:57:54.725Z,5.13
2018-11-03T14:02:58.222Z,5.47
2018-11-03T14:08:01.769Z,4.77
2018-11-03T14:13:05.402Z,5.30
2018-11-03T14:18:09.912Z,6.17
2018-11-03T14:23:14.417Z,5.80
2018-11-03T14:28:17.767Z,5.40
2018-11-03T14:33:22.283Z,7.23
2018-11-03T14:38:25.613Z,5.67
2018-11-03T14:43:29.045Z,5.43
2018-11-03T14:48:32.397Z,5.40
2018-11-03T14:53:35.800Z,6.10
2018-11-03T14:58:40.231Z,5.70
2018-11-03T15:03:43.616Z,5.57
2018-11-03T15:08:47.005Z,6.63
2018-11-03T15:13:50.956Z,5.27
2018-11-03T15:18:54.357Z,5.33
2018-11-03T15:23:57.824Z,5.03
2018-11-03T15:29:01.241Z,5.47
2018-11-03T15:34:04.686Z,5.63
2018-11-03T15:39:08.117Z,5.57
2018-11-03T15:44:11.513Z,7.17
2018-11-03T15:49:14.994Z,7.53
2018-11-03T15:54:18.421Z,6.20
2018-11-03T15:59:21.956Z,6.27
2018-11-03T16:04:25.318Z,5.87
2018-11-03T16:09:28.745Z,6.13
2018-11-03T16:14:32.222Z,7.10
2018-11-03T16:19:35.805Z,6.20
2018-11-03T16:24:39.250Z,7.73
2018-11-03T16:29:42.579Z,7.73
2018-11-03T16:34:45.935Z,7.67
2018-11-03T16:39:49.322Z,7.50
2018-11-03T16:44:52.695Z,7.40
2018-11-03T16:49:56.215Z,9.53
2018-11-03T16:54:59.698Z,8.73
2018-11-03T17:00:03.142Z,9.67
2018-11-03T17:05:06.909Z,7.33
2018-11-03T17:10:12.590Z,7.07
2018-11-03T17:15:16.347Z,7.73
2018-11-03T17:20:19.740Z,8.10
2018-11-03T17:25:23.119Z,7.73
2018-11-03T17:30:26.467Z,8.55
2018-11-03T17:35:29.876Z,8.93
2018-11-03T17:40:33.305Z,8.10
2018-11-03T17:45:37.054Z,8.10
2018-11-03T17:50:40.370Z,7.90
2018-11-03T17:55:43.845Z,10.67
2018-11-03T18:00:47.169Z,11.17
2018-11-03T18:05:50.482Z,11.40
2018-11-03T18:10:53.888Z,9.73
2018-11-03T18:15:57.243Z,7.97
2018-11-03T18:21:00.665Z,8.67
2018-11-03T18:26:04.247Z,9.10
2018-11-03T18:31:07.734Z,8.77
2018-11-03T18:36:11.443Z,7.57
2018-11-03T18:41:14.953Z,10.13
2018-11-03T18:46:18.356Z,8.77
2018-11-03T18:51:21.799Z,9.27
2018-11-03T18:56:25.197Z,7.50
2018-11-03T19:01:28.584Z,7.73
2018-11-03T19:06:33.005Z,7.20
2018-11-03T19:11:36.393Z,7.67
2018-11-03T19:16:39.925Z,8.97
2018-11-03T19:21:43.440Z,10.37
2018-11-03T19:26:46.908Z,10.13
2018-11-03T19:31:50.361Z,11.30
2018-11-03T19:36:53.749Z,10.37
2018-11-03T19:41:57.218Z,9.50
2018-11-03T19:47:00.714Z,10.87
2018-11-03T19:52:04.098Z,9.47
2018-11-03T19:57:07.449Z,7.47
2018-11-03T20:02:10.917Z,6.93
2018-11-03T20:07:14.334Z,7.60
2018-11-03T20:12:17.753Z,8.40
2018-11-03T20:17:21.236Z,9.00
2018-11-03T20:22:24.630Z,6.17
2018-11-03T20:27:28.018Z,7.10
2018-11-03T20:32:32.531Z,6.57
2018-11-03T20:37:35.959Z,5.80
2018-11-03T20:42:39.364Z,5.63
2018-11-03T20:47:42.783Z,7.57
2018-11-03T20:52:46.161Z,7.03
2018-11-03T20:57:49.548Z,7.30
2018-11-03T21:02:52.944Z,6.93
2018-11-03T21:07:56.369Z,6.50
2018-11-03T21:12:59.742Z,6.53
2018-11-03T21:18:03.370Z,7.00
2018-11-03T21:23:07.002Z,6.43
2018-11-03T21:28:10.344Z,5.63
2018-11-03T21:33:13.857Z,5.47
2018-11-03T21:38:17.257Z,6.87
2018-11-03T21:43:20.563Z,4.57
2018-11-03T21:48:24.107Z,6.73
2018-11-03T21:53:27.460Z,5.80
2018-11-03T21:58:30.961Z,5.73
2018-11-03T22:03:34.358Z,6.57
2018-11-03T22:08:37.799Z,5.67
2018-11-03T22:13:41.200Z,6.10
2018-11-03T22:18:44.569Z,4.90
2018-11-03T22:23:47.960Z,4.58
2018-11-03T22:28:51.335Z,4.33
2018-11-03T22:33:54.825Z,4.10
2018-11-03T22:38:59.122Z,3.63
2018-11-03T22:44:02.541Z,2.97
2018-11-03T22:49:07.002Z,3.73
2018-11-03T22:54:10.389Z,3.73
2018-11-03T22:59:13.904Z,3.77
2018-11-03T23:04:17.417Z,3.53
2018-11-03T23:09:21.041Z,3.90
2018-11-03T23:14:24.603Z,3.47
2018-11-03T23:19:28.169Z,3.13
2018-11-03T23:24:31.594Z,3.87
2018-11-03T23:29:35.014Z,3.30
2018-11-03T23:34:38.325Z,4.23
2018-11-03T23:39:41.632Z,3.63
2018-11-03T23:44:45.234Z,4.50
2018-11-03T23:49:48.614Z,5.47
2018-11-03T23:54:52.183Z,4.03
2018-11-03T23:59:55.615Z,4.37
